X  Sluiten METAR luchtvaart weer gegevens         EDDG Twente
Temperatuur
5°C Temperatuur
2°C Dauwpunt
81% Vochtigheid



Wind
6 M/S
13 MPH
20 KM/U
11 KTS



270°
W
Huidig weer

Mostly Clear Grotendeels helder
Luchtdruk 1016 (hPa) - 30.01 (inHg)
Zicht 6 (mijl) - 10 (km)
Vliegveld
Vliegveld code EDDG

Locatie : Twente
Afstand: 7 (km)

Metar:
METAR EDDG 012050Z AUTO 27011KT CAVOK 05/02 Q1016 NOSIG

Tijd: 01-02-2023 21:50 CET